• Join FlightAware (Why Join?)
  • Login
  • US Flag 
06:27AM EDT


 

Airport Tracker/Info


-or-


 

Live Flight TrackerFlight Track Log ✈ DAL6201 ✈ 21-Apr-2013 ✈ KPIT - KLGA

Flight Track Log - Related Links

Times and Time Zones

All times are in EDT time to prevent confusion due to time zone crossing. See the DAL6201 flight status page for this flight to view local times or setup timezone preferences in your user account.

Time Position Orientation Groundspeed Altitude Reporting Facility
EDT Latitude Longitude Course Direction KTS MPH feet Rate Location/Type
08:17PM 40.4883 -80.2086 94° East 159 183 1,900  Level FAA TRACON SMA TRACON (SMA)
08:17PM 40.4875 -80.1908 94° East 157 181 2,600 2,100 Climbing FAA TRACON SMA TRACON (SMA)
08:18PM 40.4867 -80.1669 93° East 167 192 3,300 2,100 Climbing FAA TRACON SMA TRACON (SMA)
08:18PM 40.4861 -80.1447 92° East 189 217 4,000 2,100 Climbing FAA TRACON SMA TRACON (SMA)
08:18PM 40.4892 -80.1197 81° East 218 251 4,700 2,400 Climbing FAA TRACON SMA TRACON (SMA)
08:19PM 40.4942 -80.0881 78° East 231 266 5,600 2,220 Climbing FAA TRACON SMA TRACON (SMA)
08:19PM 40.4981 -80.0603 80° East 252 290 6,200 1,920 Climbing FAA TRACON SMA TRACON (SMA)
08:19PM 40.5019 -80.0311 80° East 266 306 6,900 2,520 Climbing FAA TRACON SMA TRACON (SMA)
08:20PM 40.5072 -79.9925 80° East 278 320 7,900 2,820 Climbing FAA TRACON SMA TRACON (SMA)
08:20PM 40.5122 -79.9661 76° East 280 322 8,800 2,820 Climbing FAA TRACON SMA TRACON (SMA)
08:20PM 40.5156 -79.9303 83° East 282 325 9,800 2,160 Climbing FAA TRACON SMA TRACON (SMA)
08:21PM 40.5275 -79.8594 77° East 293 337 11,000 1,620 Climbing FAA TRACON SMA TRACON (SMA)
08:21PM 40.5303 -79.8197 85° East 332 382 11,500 1,620 Climbing FAA TRACON SMA TRACON (SMA)
08:22PM 40.5367 -79.7719 80° East 351 404 12,100 1,500 Climbing FAA TRACON SMA TRACON (SMA)
08:22PM 40.5442 -79.7375 74° East 352 405 12,500 1,140 Climbing FAA TRACON SMA TRACON (SMA)
08:22PM 40.5508 -79.6961 78° East 366 421 12,900 1,620 Climbing FAA TRACON SMA TRACON (SMA)
08:23PM 40.5544 -79.6392 85° East 378 435 13,600 1,500 Climbing FAA TRACON SMA TRACON (SMA)
08:23PM 40.5633 -79.6008 73° East 387 445 13,900 1,320 Climbing FAA TRACON SMA TRACON (SMA)
08:23PM 40.5664 -79.5522 85° East 394 453 14,500 1,920 Climbing FAA TRACON SMA TRACON (SMA)
08:24PM 40.5742 -79.4967 80° East 402 463 15,200 1,740 Climbing FAA TRACON SMA TRACON (SMA)
08:24PM 40.5831 -79.4564 74° East 401 461 15,700 1,800 Climbing FAA TRACON SMA TRACON (SMA)
08:24PM 40.5861 -79.4069 85° East 405 466 16,400 2,280 Climbing FAA TRACON SMA TRACON (SMA)
08:25PM 40.5936 -79.3508 80° East 406 467 17,200 1,920 Climbing FAA TRACON SMA TRACON (SMA)
08:25PM 40.6044 -79.3097 71° East 407 468 17,700 1,020 Climbing FAA TRACON SMA TRACON (SMA)
08:25PM 40.6058 -79.2606 88° East 407 468 17,900 1,440 Climbing FAA TRACON SMA TRACON (SMA)
08:26PM 40.6133 -79.2044 80° East 406 467 18,700 2,100 Climbing FAA TRACON SMA TRACON (SMA)
08:26PM 40.6192 -79.1594 80° East 406 467 19,300 1,680 Climbing FAA TRACON SMA TRACON (SMA)
08:26PM 40.6253 -79.1139 80° East 408 470 19,800 1,320 Climbing FAA TRACON SMA TRACON (SMA)
08:27PM 40.6311 -79.0681 80° East 411 473 20,200 1,380 Climbing FAA TRACON SMA TRACON (SMA)
08:27PM 40.6539 -78.9547 75° East 413 475 21,400 960 Climbing Cleveland Center
08:28PM 40.6722 -78.7983 81° East 413 475 22,000 720 Climbing Cleveland Center
08:29PM 40.6928 -78.6417 80° East 424 488 22,900 1,560 Climbing Cleveland Center
08:30PM 40.7147 -78.4683 80° East 435 501 25,200 1,440 Climbing Cleveland Center
08:33PM 40.8314 -78.1492 64° Northeast 436 502 27,600 1,020 Climbing New York Center
08:34PM 40.9047 -78.0089 55° Northeast 448 516 28,600 660 Climbing New York Center
08:35PM 40.9297 -77.8356 79° East 448 516 29,000 180 Climbing New York Center
08:36PM 40.9444 -77.6558 84° East 473 544 29,000  Level New York Center
08:37PM 40.9592 -77.4731 84° East 488 562 29,000  Level New York Center
08:38PM 40.9736 -77.2875 84° East 499 574 29,000 -600 Level New York Center
08:39PM 40.9878 -77.1047 84° East 499 574 27,800 -1,860 Descending New York Center
08:40PM 40.9994 -76.9242 85° East 494 568 25,300 -2,400 Descending New York Center
08:41PM 41.0144 -76.7550 83° East 489 563 23,100 -2,100 Descending New York Center
08:42PM 41.0039 -76.5892 95° East 463 533 21,200 -1,740 Descending New York Center
08:43PM 40.9653 -76.4403 109° East 432 497 19,600 -1,560 Descending New York Center
08:44PM 40.9325 -76.2944 107° East 425 489 18,100 -840 Descending New York Center
08:45PM 40.8994 -76.1547 107° East 412 474 18,000 -660 Descending New York Center
08:46PM 40.8675 -76.0286 108° East 404 465 16,800 -1,920 Descending New York Center
08:47PM 40.8322 -75.8806 107° East 388 447 14,300 -1,920 Descending New York Center
08:48PM 40.8022 -75.7575 108° East 368 423 13,000 -660 Descending New York Center
08:49PM 40.7753 -75.6514 109° East 327 376 13,000  Level New York Center
08:50PM 40.7522 -75.5567 108° East 299 344 13,000  Level New York Center
08:51PM 40.7589 -75.4394 86° East 287 330 13,000  Level New York Center
08:52PM 40.7539 -75.3569 95° East 287 330 13,000  Level New York Center
08:53PM 40.6972 -75.2572 127° Southeast 281 323 13,000 -360 Level New York Center
08:54PM 40.6656 -75.1567 113° Southeast 296 341 12,400 -1,320 Descending New York Center
08:55PM 40.6083 -75.0683 130° Southeast 291 335 10,500 -1,200 Descending New York Center
08:56PM 40.5633 -74.9889 127° Southeast 285 328 10,000 -300 Descending New York Center
08:57PM 40.5372 -74.9028 112° Southeast 279 321 10,000  Level New York Center
08:57PM 40.5167 -74.8167 107° East 285 328 10,000 -60 Level New York TRACON
08:58PM 40.4833 -74.7167 114° Southeast 275 316 9,900 -480 Descending New York TRACON
08:59PM 40.4500 -74.6167 114° Southeast 268 308 9,000 -480 Descending New York TRACON
09:00PM 40.4333 -74.5333 105° East 275 316 9,000 -420 Level New York TRACON
09:01PM 40.4667 -74.4333 66° East 273 314 8,200 -900 Descending New York TRACON
09:02PM 40.4833 -74.3500 75° East 246 283 7,200 -600 Descending New York TRACON
09:03PM 40.5000 -74.2667 75° East 187 215 7,000 -120 Descending New York TRACON
09:04PM 40.5167 -74.2167 66° East 182 209 7,000 -540 Level New York TRACON
09:05PM 40.5500 -74.1667 49° Northeast 187 215 6,000 -1,080 Descending New York TRACON
09:06PM 40.5833 -74.1167 49° Northeast 185 213 5,000 -1,020 Descending New York TRACON
09:07PM 40.6167 -74.0833 37° Northeast 181 208 4,100 -480 Descending New York TRACON
09:08PM 40.6667 -74.0500 27° Northeast 181 208 4,000 -60 Descending New York TRACON
09:09PM 40.7167 -74.0333 14° North 178 205 4,000  Level New York TRACON
09:10PM 40.7667 -74.0167 14° North 182 209 4,100  Climbing New York TRACON
09:11PM 40.8167 -73.9833 27° Northeast 179 206 4,100 -360 Level New York TRACON
09:12PM 40.8500 -73.9500 37° Northeast 176 203 3,400 -600 Descending New York TRACON
09:13PM 40.9000 -73.9167 27° Northeast 182 209 3,000 -600 Descending New York TRACON
09:14PM 40.9000 -73.8667 90° East 181 208 2,300 -480 Descending New York TRACON
09:15PM 40.8833 -73.8000 108° East 189 217 2,100 -420 Descending New York TRACON
09:16PM 40.8500 -73.8167 201° Southwest 166 191 1,500 -660 Descending New York TRACON
09:17PM 40.8167 -73.8500 217° Southwest 137 158 900 -720 Descending New York TRACON
09:19PM 40.7772 -73.8726 204° Southwest  Level Estimated
09:26PM 40.7772 -73.8726 204° Southwest  Level Estimated
09:27PM 40.7772 -73.8726 204° Southwest  Level Estimated